Time;durP1;ratioP1;P1;durP2;ratioP2;P2;SDS_P1;SDS_P2;PMS_P1;PMS_P2;Temp;Humidity;BMP_temperature;BMP_pressure;BME280_temperature;BME280_humidity;BME280_pressure;Samples;Min_cycle;Max_cycle;Signal;HPM_P1;HPM_P2
2022/05/04 00:02:18;;;;;;;;;19.00;18.00;;;;;19.20;40.72;98753.38;6308564;27;97428;-73
2022/05/04 00:05:23;;;;;;;;;20.80;19.40;;;;;19.15;40.79;98752.56;6283533;27;96933;-73
2022/05/04 00:08:26;;;;;;;;;17.50;17.00;;;;;19.09;39.90;98751.78;6294759;27;96822;-75
2022/05/04 00:11:30;;;;;;;;;20.80;17.80;;;;;19.11;39.44;98748.78;6290768;27;97549;-75
2022/05/04 00:14:33;;;;;;;;;19.25;18.00;;;;;19.10;39.76;98747.94;6312674;27;97386;-72
2022/05/04 00:17:36;;;;;;;;;20.00;19.00;;;;;19.07;40.39;98745.75;6310758;27;97985;-73
2022/05/04 00:20:41;;;;;;;;;20.00;18.40;;;;;19.00;40.47;98748.00;6271496;27;96693;-74
2022/05/04 00:23:45;;;;;;;;;20.00;19.00;;;;;18.94;40.55;98746.38;6307958;27;97104;-75
2022/05/04 00:26:48;;;;;;;;;20.00;19.40;;;;;18.91;40.40;98755.13;6284250;27;97471;-73
2022/05/04 00:29:53;;;;;;;;;20.60;17.60;;;;;18.87;41.04;98757.59;6295432;27;99211;-74
2022/05/04 00:32:58;;;;;;;;;19.00;18.00;;;;;18.85;40.44;98770.72;6280286;27;97502;-75
2022/05/04 00:36:02;;;;;;;;;20.00;17.40;;;;;18.84;40.28;98769.06;6294382;27;98170;-73
2022/05/04 00:39:06;;;;;;;;;17.00;15.25;;;;;18.68;40.32;98761.19;6295664;27;98390;-74
2022/05/04 00:42:11;;;;;;;;;18.40;16.60;;;;;18.83;40.56;98772.06;6313686;27;97636;-73
2022/05/04 00:45:14;;;;;;;;;16.50;15.00;;;;;18.81;40.67;98766.91;6280588;27;98362;-74
2022/05/04 00:48:18;;;;;;;;;17.40;16.00;;;;;18.79;39.86;98779.19;6276330;27;98366;-74
2022/05/04 00:51:22;;;;;;;;;17.00;16.00;;;;;18.71;39.88;98757.94;6260766;27;97173;-75
2022/05/04 00:54:27;;;;;;;;;17.33;15.00;;;;;18.76;39.90;98771.56;6310725;27;97435;-74
2022/05/04 01:00:57;;;;;;;;;19.00;17.00;;;;;18.54;42.41;98778.16;6275010;27;97582;-75
2022/05/04 01:04:00;;;;;;;;;17.00;15.60;;;;;18.40;43.17;98776.25;6272146;27;99263;-75
2022/05/04 01:07:05;;;;;;;;;18.00;16.20;;;;;18.26;43.49;98786.91;6269629;27;97703;-75
2022/05/04 01:10:11;;;;;;;;;20.50;17.75;;;;;18.18;43.68;98787.44;6282052;27;97450;-74
2022/05/04 01:13:18;;;;;;;;;21.00;19.00;;;;;18.14;44.00;98783.63;6264919;27;97146;-75
2022/05/04 01:16:22;;;;;;;;;16.00;15.60;;;;;18.08;44.10;98788.25;6296701;27;97290;-73
2022/05/04 01:19:25;;;;;;;;;17.00;15.80;;;;;17.96;44.07;98784.16;6285950;27;97369;-73
2022/05/04 01:22:29;;;;;;;;;20.00;18.20;;;;;17.90;44.39;98777.88;6287800;27;97576;-74
2022/05/04 01:25:33;;;;;;;;;19.00;16.00;;;;;17.88;44.22;98782.00;6306269;27;97532;-74
2022/05/04 01:28:36;;;;;;;;;17.00;16.00;;;;;17.85;44.41;98771.59;6287575;27;96402;-74
2022/05/04 01:31:40;;;;;;;;;18.00;16.00;;;;;17.82;44.07;98777.63;6273539;27;98073;-74
2022/05/04 01:34:43;;;;;;;;;18.00;16.00;;;;;17.77;44.32;98774.88;6293590;27;97053;-74
2022/05/04 01:37:50;;;;;;;;;17.40;17.40;;;;;17.68;44.47;98780.88;6257359;27;97703;-74
2022/05/04 01:40:53;;;;;;;;;18.20;17.00;;;;;17.64;44.35;98766.13;6275450;27;96728;-74
2022/05/04 01:43:57;;;;;;;;;16.60;14.60;;;;;17.59;44.51;98779.75;6308093;27;97660;-75
2022/05/04 01:47:00;;;;;;;;;16.00;15.00;;;;;17.56;44.57;98787.63;6312070;27;96339;-74
2022/05/04 01:50:05;;;;;;;;;15.75;14.00;;;;;17.47;44.67;98791.97;6271459;27;98355;-74
2022/05/04 01:53:10;;;;;;;;;16.00;15.00;;;;;17.39;44.67;98795.22;6303657;27;97516;-74
2022/05/04 01:56:13;;;;;;;;;17.00;17.00;;;;;17.33;44.43;98791.66;6312204;27;97407;-74
2022/05/04 01:59:17;;;;;;;;;19.25;16.00;;;;;17.32;44.37;98796.28;6293305;27;97455;-74
2022/05/04 02:02:22;;;;;;;;;18.67;17.67;;;;;17.28;44.38;98800.63;6295934;27;97358;-74
2022/05/04 02:05:27;;;;;;;;;17.40;15.40;;;;;17.01;45.26;98778.16;6291496;27;97472;-72
2022/05/04 02:08:33;;;;;;;;;19.00;17.00;;;;;17.00;45.73;98786.63;6298204;27;97155;-74
2022/05/04 02:11:38;;;;;;;;;18.20;16.40;;;;;16.95;45.78;98789.31;6300122;27;97491;-74
2022/05/04 02:14:41;;;;;;;;;18.00;17.00;;;;;16.89;46.00;98781.13;6311835;27;98023;-74
2022/05/04 02:17:45;;;;;;;;;17.00;15.20;;;;;16.84;46.02;98785.72;6316117;27;97136;-74
2022/05/04 02:20:48;;;;;;;;;19.00;16.40;;;;;16.83;46.11;98789.53;6281072;27;98893;-74
2022/05/04 02:23:53;;;;;;;;;18.00;16.00;;;;;16.82;46.12;98804.22;6298359;27;97060;-74
2022/05/04 02:26:56;;;;;;;;;16.00;15.60;;;;;16.85;45.84;98820.06;6279068;27;98804;-73
2022/05/04 02:29:59;;;;;;;;;20.00;18.00;;;;;16.88;45.33;98814.06;6281207;27;99639;-74
2022/05/04 02:33:03;;;;;;;;;18.25;17.00;;;;;16.90;44.88;98822.81;6283309;27;99706;-74
2022/05/04 02:39:29;;;;;;;;;17.50;16.50;;;;;16.95;43.74;98806.50;6287642;27;97090;-73
2022/05/04 02:42:33;;;;;;;;;18.50;17.50;;;;;17.06;44.20;98823.69;6278958;27;98630;-73
2022/05/04 02:45:36;;;;;;;;;17.00;16.00;;;;;17.03;44.47;98822.31;6316933;27;97537;-74
2022/05/04 02:48:39;;;;;;;;;17.00;16.00;;;;;17.03;44.51;98825.03;6297379;27;97655;-73
2022/05/04 02:51:43;;;;;;;;;17.20;16.20;;;;;17.00;44.71;98833.75;6298499;27;96541;-74
2022/05/04 02:54:47;;;;;;;;;17.00;16.00;;;;;16.96;45.04;98838.06;6307957;27;97470;-74
2022/05/04 02:57:51;;;;;;;;;19.00;18.20;;;;;16.95;44.82;98846.50;6311097;27;96359;-73
2022/05/04 03:00:54;;;;;;;;;20.60;17.80;;;;;17.01;44.45;98846.25;6305240;27;98091;-74
2022/05/04 03:03:58;;;;;;;;;19.00;16.00;;;;;17.03;44.32;98851.44;6257060;27;99430;-75
2022/05/04 03:07:01;;;;;;;;;18.00;15.60;;;;;17.08;44.04;98856.94;6290954;27;96877;-73
2022/05/04 03:10:07;;;;;;;;;16.20;14.20;;;;;17.02;43.71;98847.91;6286057;27;99618;-74
2022/05/04 03:13:10;;;;;;;;;15.60;15.00;;;;;17.16;43.44;98851.78;6310698;27;97360;-74
2022/05/04 03:16:13;;;;;;;;;17.25;16.00;;;;;17.18;43.16;98854.25;6279243;27;98515;-74
2022/05/04 03:19:17;;;;;;;;;17.50;16.50;;;;;17.01;44.38;98848.97;6309578;27;97532;-73
2022/05/04 03:22:20;;;;;;;;;16.40;16.00;;;;;16.83;44.52;98839.34;6313211;27;96920;-74
2022/05/04 03:25:27;;;;;;;;;21.00;17.00;;;;;16.60;44.60;98807.09;6272021;27;97232;-73
2022/05/04 03:28:30;;;;;;;;;17.40;16.40;;;;;16.64;44.43;98821.81;6307572;27;96636;-74
2022/05/04 03:31:34;;;;;;;;;17.00;16.00;;;;;16.65;44.36;98838.97;6272393;27;98547;-72
2022/05/04 03:34:38;;;;;;;;;15.20;14.60;;;;;16.53;44.35;98828.25;6302807;27;96755;-73
2022/05/04 03:37:41;;;;;;;;;18.00;15.00;;;;;16.54;44.38;98827.16;6305466;27;97089;-74
2022/05/04 03:40:46;;;;;;;;;18.00;16.00;;;;;16.59;44.34;98831.84;6292162;27;97722;-72
2022/05/04 03:43:49;;;;;;;;;16.00;15.00;;;;;16.51;44.09;98835.84;6296384;27;97141;-73
2022/05/04 03:46:54;;;;;;;;;17.00;16.00;;;;;16.33;44.39;98831.63;6283497;27;97989;-73
2022/05/04 03:49:57;;;;;;;;;16.60;15.60;;;;;16.20;44.93;98823.91;6292362;27;100095;-73
2022/05/04 03:53:01;;;;;;;;;18.60;17.60;;;;;16.31;44.84;98831.09;6314418;27;96585;-74
2022/05/04 03:56:07;;;;;;;;;18.80;16.20;;;;;16.46;44.38;98833.09;6290487;27;96530;-74
2022/05/04 03:59:10;;;;;;;;;17.00;17.00;;;;;16.59;44.06;98842.75;6293316;27;98388;-74
2022/05/04 04:02:14;;;;;;;;;18.50;17.00;;;;;16.65;43.99;98847.13;6282398;27;98017;-74
2022/05/04 04:05:18;;;;;;;;;15.80;15.80;;;;;16.72;43.96;98847.72;6302306;27;98551;-74
2022/05/04 04:08:22;;;;;;;;;18.00;16.80;;;;;16.82;43.69;98853.22;6291386;27;97074;-73
2022/05/04 04:11:27;;;;;;;;;19.00;18.40;;;;;16.86;43.62;98847.00;6297915;27;96829;-74
2022/05/04 04:14:30;;;;;;;;;17.00;15.00;;;;;16.72;43.57;98843.09;6308562;27;96641;-73
2022/05/04 04:17:33;;;;;;;;;15.33;14.33;;;;;16.70;43.75;98847.19;6265379;27;97949;-73
2022/05/04 04:23:58;;;;;;;;;17.40;15.60;;;;;16.94;42.98;98847.59;6290210;27;96733;-74
2022/05/04 04:27:03;;;;;;;;;16.00;14.00;;;;;16.79;42.06;98805.59;6300630;27;96744;-75
2022/05/04 04:30:07;;;;;;;;;15.00;13.60;;;;;17.24;41.74;98855.94;6279682;27;96764;-73
2022/05/04 04:33:10;;;;;;;;;13.00;12.00;;;;;17.45;41.61;98857.63;6286285;27;98775;-72
2022/05/04 04:36:13;;;;;;;;;17.00;13.60;;;;;17.58;41.59;98856.34;6300768;27;97794;-73
2022/05/04 04:39:17;;;;;;;;;13.00;12.00;;;;;17.88;40.89;98888.34;6292855;27;96656;-73
2022/05/04 04:42:21;;;;;;;;;13.67;12.00;;;;;18.09;40.79;98896.28;6294593;27;97329;-73
2022/05/04 04:45:25;;;;;;;;;15.40;14.40;;;;;18.27;40.25;98905.06;6279748;27;97388;-74
2022/05/04 04:48:28;;;;;;;;;15.50;13.50;;;;;18.42;39.99;98916.00;6276020;27;98422;-73
2022/05/04 04:51:31;;;;;;;;;15.40;14.40;;;;;18.52;40.25;98925.00;6282704;27;99855;-75
2022/05/04 04:54:35;;;;;;;;;17.00;15.25;;;;;18.62;40.24;98918.75;6302573;27;97695;-75
2022/05/04 04:57:40;;;;;;;;;16.40;15.00;;;;;18.63;40.57;98919.56;6274222;27;98514;-75
2022/05/04 05:00:44;;;;;;;;;16.80;16.00;;;;;18.62;40.34;98923.44;6306596;27;97157;-74
2022/05/04 05:03:47;;;;;;;;;17.00;15.00;;;;;18.68;40.20;98917.66;6285913;27;97920;-74
2022/05/04 05:06:50;;;;;;;;;15.00;14.60;;;;;18.75;40.02;98918.22;6313571;27;96654;-73
2022/05/04 05:09:54;;;;;;;;;17.25;16.00;;;;;18.73;39.61;98914.94;6306348;27;98087;-74
2022/05/04 05:12:59;;;;;;;;;17.20;16.00;;;;;18.74;39.75;98915.75;6272147;27;98807;-74
2022/05/04 05:16:07;;;;;;;;;16.00;14.25;;;;;18.67;39.88;98910.56;6274674;27;96941;-73
2022/05/04 05:19:10;;;;;;;;;15.80;14.80;;;;;18.70;39.96;98909.22;6295376;27;97542;-71
2022/05/04 05:22:13;;;;;;;;;16.00;15.00;;;;;18.52;41.21;98907.81;6286788;27;97102;-72
2022/05/04 05:25:17;;;;;;;;;16.40;15.00;;;;;18.47;41.36;98911.34;6274819;27;97439;-72
2022/05/04 05:28:40;;;;;;;;;14.00;12.00;;;;;18.43;40.71;98904.78;6306834;27;96679;-73
2022/05/04 05:31:43;;;;;;;;;15.00;14.00;;;;;18.34;40.20;98898.25;6305281;27;98385;-70
2022/05/04 05:34:46;;;;;;;;;15.25;14.75;;;;;18.45;40.24;98893.63;6286702;27;96726;-71
2022/05/04 05:37:50;;;;;;;;;20.00;16.00;;;;;18.57;40.01;98899.63;6307533;27;97482;-76
2022/05/04 05:40:53;;;;;;;;;17.00;15.00;;;;;18.72;39.64;98896.09;6285631;27;98584;-71
2022/05/04 05:43:58;;;;;;;;;16.00;14.60;;;;;18.60;39.65;98901.84;6287633;27;97268;-73
2022/05/04 05:47:01;;;;;;;;;16.00;15.00;;;;;18.58;39.64;98898.56;6292985;27;96684;-75
2022/05/04 05:50:05;;;;;;;;;19.40;17.00;;;;;18.60;39.70;98901.84;6268973;27;96863;-73
2022/05/04 05:53:08;;;;;;;;;16.25;14.00;;;;;18.82;39.62;98904.28;6251876;27;97879;-73
2022/05/04 05:56:12;;;;;;;;;16.00;15.80;;;;;18.88;39.53;98904.00;6269853;27;100251;-72
2022/05/04 05:59:16;;;;;;;;;15.75;14.75;;;;;18.95;39.10;98904.56;6308020;27;97753;-71
2022/05/04 06:02:22;;;;;;;;;15.80;15.00;;;;;19.09;38.97;98902.06;6294155;27;96461;-75
2022/05/04 06:05:26;;;;;;;;;17.80;15.80;;;;;19.18;39.32;98897.66;6313606;27;97042;-72
2022/05/04 06:08:29;;;;;;;;;17.00;16.00;;;;;19.43;39.04;98905.78;6264158;27;99490;-72
2022/05/04 06:11:34;;;;;;;;;16.00;15.00;;;;;19.94;37.99;98907.53;6312475;27;96912;-69
2022/05/04 06:14:38;;;;;;;;;15.00;15.00;;;;;20.38;36.80;98921.25;6288833;27;96708;-69
2022/05/04 06:17:47;;;;;;;;;18.40;16.80;;;;;20.70;35.64;98911.38;6270912;27;99532;-69
2022/05/04 06:20:50;;;;;;;;;19.00;17.00;;;;;21.05;36.13;98923.13;6285243;27;98018;-72
2022/05/04 06:23:54;;;;;;;;;19.40;17.60;;;;;21.10;34.17;98925.81;6296385;27;96807;-72
2022/05/04 06:26:57;;;;;;;;;19.40;17.00;;;;;21.34;34.85;98926.69;6276721;27;96989;-72
2022/05/04 06:36:57;;;;;;;;;18.00;16.40;;;;;22.29;33.65;98929.34;6190203;28;97436;-72
2022/05/04 06:40:01;;;;;;;;;15.00;14.00;;;;;22.69;33.80;98927.09;6208447;28;97483;-77
2022/05/04 06:43:05;;;;;;;;;15.75;15.00;;;;;22.87;30.91;98924.31;6268985;27;98041;-73
2022/05/04 06:46:10;;;;;;;;;12.50;12.50;;;;;23.11;31.41;98929.69;6292119;27;97221;-69
2022/05/04 06:49:14;;;;;;;;;17.00;17.00;;;;;23.38;31.52;98928.09;6290802;27;97654;-73
2022/05/04 06:52:17;;;;;;;;;15.00;14.00;;;;;23.68;31.30;98938.53;6316266;27;96462;-72
2022/05/04 06:55:20;;;;;;;;;18.80;15.00;;;;;23.95;31.96;98927.50;6315284;27;96899;-72
2022/05/04 06:58:24;;;;;;;;;16.00;15.67;;;;;24.20;30.53;98936.34;6291702;27;96402;-72
2022/05/04 07:01:29;;;;;;;;;15.40;14.40;;;;;24.30;28.67;98938.88;6306526;27;96677;-73
2022/05/04 07:04:33;;;;;;;;;13.00;12.60;;;;;24.40;29.02;98931.22;6277117;27;98963;-73
2022/05/04 07:07:36;;;;;;;;;12.00;11.75;;;;;24.16;29.83;98936.13;6315856;27;97533;-74
2022/05/04 07:10:40;;;;;;;;;13.75;13.00;;;;;24.15;29.71;98907.78;6297110;27;96769;-71
2022/05/04 07:13:43;;;;;;;;;13.00;12.00;;;;;24.39;29.06;98934.25;6312936;27;96831;-73
2022/05/04 07:16:48;;;;;;;;;14.00;12.00;;;;;24.53;29.15;98937.81;6297004;27;96820;-71
2022/05/04 07:19:52;;;;;;;;;13.00;12.60;;;;;24.60;27.95;98935.41;6314425;27;97451;-70
2022/05/04 07:22:56;;;;;;;;;12.00;12.00;;;;;24.57;27.85;98938.81;6312617;27;96719;-70
2022/05/04 07:25:59;;;;;;;;;11.00;11.00;;;;;24.82;28.45;98935.44;6298972;27;96613;-70
2022/05/04 07:29:03;;;;;;;;;12.50;10.50;;;;;24.99;27.55;98935.56;6296542;27;99638;-70
2022/05/04 07:32:08;;;;;;;;;13.00;12.00;;;;;25.10;28.00;98932.56;6310084;27;96947;-72
2022/05/04 07:35:12;;;;;;;;;10.25;10.00;;;;;25.44;28.14;98936.31;6301175;27;97507;-68
2022/05/04 07:38:15;;;;;;;;;14.00;11.00;;;;;25.60;26.70;98933.97;6279663;27;99583;-71
2022/05/04 07:44:40;;;;;;;;;13.00;12.00;;;;;25.41;27.13;98934.16;6283294;27;97690;-75
2022/05/04 07:47:46;;;;;;;;;10.00;10.00;;;;;25.56;26.38;98937.69;6286694;27;96772;-72
2022/05/04 07:50:49;;;;;;;;;7.25;7.25;;;;;25.73;25.86;98943.28;6290178;27;96579;-73
2022/05/04 07:53:52;;;;;;;;;11.00;11.00;;;;;26.03;26.16;98933.28;6295821;27;97180;-71
2022/05/04 07:56:56;;;;;;;;;9.00;8.00;;;;;26.14;25.39;98938.19;6295732;27;97936;-68
2022/05/04 08:06:43;;;;;;;;;9.00;9.00;;;;;26.98;24.11;98954.34;6288879;27;96862;-72
2022/05/04 08:09:46;;;;;;;;;10.00;10.00;;;;;27.21;23.93;98951.38;6313502;27;97471;-72
2022/05/04 08:12:51;;;;;;;;;11.00;8.00;;;;;27.00;23.21;98946.53;6293988;27;97502;-72
2022/05/04 08:15:55;;;;;;;;;8.00;7.60;;;;;26.76;22.48;98951.75;6311413;27;96976;-72
2022/05/04 08:19:00;;;;;;;;;7.75;7.75;;;;;27.15;24.69;98950.75;6301855;27;97840;-71
2022/05/04 08:22:04;;;;;;;;;7.75;7.00;;;;;27.47;24.13;98950.16;6296301;27;96979;-71
2022/05/04 08:25:08;;;;;;;;;10.00;10.00;;;;;27.67;22.79;98920.13;6269220;27;99909;-70
2022/05/04 08:28:12;;;;;;;;;9.00;8.00;;;;;27.99;23.14;98959.09;6297734;27;96709;-70
2022/05/04 08:31:17;;;;;;;;;11.00;10.40;;;;;28.31;22.83;98962.34;6261429;27;96705;-71
2022/05/04 08:34:22;;;;;;;;;10.00;10.00;;;;;28.12;22.39;98956.44;6292635;27;96860;-68
2022/05/04 08:37:27;;;;;;;;;8.60;8.00;;;;;28.01;22.41;98954.00;6311724;27;97434;-71
2022/05/04 08:40:30;;;;;;;;;10.00;9.00;;;;;28.10;23.61;98951.19;6287155;27;97512;-69
2022/05/04 08:43:34;;;;;;;;;9.00;8.60;;;;;28.41;22.94;98950.84;6304552;27;97478;-70
2022/05/04 08:46:39;;;;;;;;;9.60;9.00;;;;;28.19;21.61;98949.22;6294717;27;97636;-72
2022/05/04 08:49:47;;;;;;;;;10.00;10.00;;;;;28.15;22.90;98931.59;6275884;27;97909;-72
2022/05/04 08:52:55;;;;;;;;;11.00;10.00;;;;;28.52;23.65;98954.03;6284502;27;97216;-71
2022/05/04 08:55:58;;;;;;;;;11.40;11.00;;;;;27.99;22.23;98938.88;6279575;27;96570;-74
2022/05/04 08:59:09;;;;;;;;;14.00;12.00;;;;;28.31;21.32;98957.59;6285661;27;100003;-73
2022/05/04 09:02:12;;;;;;;;;9.25;9.00;;;;;28.66;23.45;98957.34;6281587;27;98390;-73
2022/05/04 09:05:20;;;;;;;;;10.00;10.00;;;;;28.59;22.16;98960.66;6300476;27;97943;-75
2022/05/04 09:08:23;;;;;;;;;10.00;9.60;;;;;28.69;22.08;98951.09;6311829;27;97769;-74
2022/05/04 09:11:27;;;;;;;;;12.00;11.00;;;;;28.19;22.31;98949.22;6308381;27;97536;-73
2022/05/04 09:14:35;;;;;;;;;9.00;9.00;;;;;28.46;22.67;98947.88;6292676;27;97203;-72
2022/05/04 09:17:39;;;;;;;;;11.00;9.75;;;;;28.71;21.88;98948.81;6302988;27;97771;-73
2022/05/04 09:20:55;;;;;;;;;9.00;8.00;;;;;29.13;22.89;98919.03;6308948;27;97547;-74
2022/05/04 09:23:59;;;;;;;;;10.00;10.00;;;;;29.54;20.80;98949.47;6298228;27;97434;-71
2022/05/04 09:27:05;;;;;;;;;12.00;12.00;;;;;29.33;21.12;98957.06;6289825;27;96884;-70
2022/05/04 09:30:09;;;;;;;;;11.00;10.40;;;;;29.70;20.53;98944.88;6279630;27;97463;-74
2022/05/04 09:33:17;;;;;;;;;11.20;10.00;;;;;29.37;20.15;98946.09;6288801;27;97489;-72
2022/05/04 09:36:33;;;;;;;;;9.00;7.00;;;;;29.49;22.28;98949.69;6307947;27;96985;-72
2022/05/04 09:46:22;;;;;;;;;10.75;10.00;;;;;29.16;21.50;98952.50;6277495;27;100082;-69
2022/05/04 09:49:30;;;;;;;;;9.40;9.00;;;;;29.29;23.03;98950.56;6306824;27;97181;-69
2022/05/04 09:52:42;;;;;;;;;9.40;9.00;;;;;29.27;22.08;98950.09;6288638;27;97739;-70
2022/05/04 09:55:46;;;;;;;;;12.00;12.00;;;;;28.98;22.46;98951.03;6261664;27;98976;-70
2022/05/04 09:58:50;;;;;;;;;11.00;10.20;;;;;29.36;23.06;98938.91;6296748;27;96772;-68
2022/05/04 10:01:54;;;;;;;;;13.50;11.00;;;;;29.01;21.92;98944.81;6275050;27;99635;-70
2022/05/04 10:04:59;;;;;;;;;25.25;23.25;;;;;29.07;22.44;98943.44;6302311;27;96470;-70
2022/05/04 10:08:04;;;;;;;;;10.80;10.80;;;;;29.03;22.03;98939.72;6288278;27;98405;-70
2022/05/04 10:11:08;;;;;;;;;9.00;9.00;;;;;28.87;21.93;98940.72;6305646;27;98383;-70
2022/05/04 10:14:15;;;;;;;;;11.00;10.00;;;;;28.73;22.47;98936.28;6277766;27;97551;-69
2022/05/04 10:17:22;;;;;;;;;11.00;11.00;;;;;28.19;22.68;98921.50;6259916;27;98458;-70
2022/05/04 10:20:33;;;;;;;;;11.80;10.40;;;;;28.54;23.45;98919.25;6281374;27;99636;-70
2022/05/04 10:23:43;;;;;;;;;11.20;11.00;;;;;28.77;22.01;98928.88;6285641;27;97007;-70
2022/05/04 10:26:46;;;;;;;;;10.80;10.20;;;;;28.49;22.38;98886.19;6286864;27;96903;-70
2022/05/04 10:33:24;;;;;;;;;10.80;9.40;;;;;28.73;22.07;98922.41;6292124;27;97166;-70
2022/05/04 10:36:29;;;;;;;;;10.40;10.20;;;;;28.50;22.10;98923.03;6311277;27;96561;-70
2022/05/04 10:39:34;;;;;;;;;10.00;9.50;;;;;28.61;22.68;98925.06;6274368;27;96911;-69
2022/05/04 10:42:57;;;;;;;;;10.00;9.60;;;;;29.01;22.11;98919.03;6309928;27;97501;-70
2022/05/04 10:46:05;;;;;;;;;11.00;10.00;;;;;29.22;22.69;98917.78;6292319;27;96715;-71
2022/05/04 10:49:13;;;;;;;;;9.00;9.00;;;;;29.31;22.18;98922.47;6293133;27;98360;-68
2022/05/04 10:52:18;;;;;;;;;11.00;10.60;;;;;29.38;21.42;98915.19;6309439;27;97522;-69
2022/05/04 10:55:23;;;;;;;;;10.80;10.80;;;;;29.50;21.66;98912.44;6310190;27;96653;-70
2022/05/04 10:58:38;;;;;;;;;9.00;9.00;;;;;29.97;20.55;98903.66;6311682;27;96918;-70
2022/05/04 11:01:41;;;;;;;;;10.00;10.00;;;;;30.29;20.00;98899.09;6310680;27;97305;-70
2022/05/04 11:04:53;;;;;;;;;10.00;8.00;;;;;30.38;20.24;98899.75;6272694;27;97793;-73
2022/05/04 11:07:58;;;;;;;;;12.20;12.00;;;;;30.47;19.88;98903.22;6267523;27;98257;-72
2022/05/04 11:11:03;;;;;;;;;9.50;9.50;;;;;30.57;19.39;98901.94;6294069;27;98592;-73
2022/05/04 11:14:09;;;;;;;;;11.00;11.00;;;;;30.17;19.97;98907.44;6286117;27;97910;-74
2022/05/04 11:17:13;;;;;;;;;12.00;11.00;;;;;30.13;19.07;98901.78;6298615;27;96809;-72
2022/05/04 11:20:23;;;;;;;;;13.00;12.00;;;;;29.66;19.60;98893.91;6308541;27;96918;-68
2022/05/04 11:23:26;;;;;;;;;11.00;10.20;;;;;29.53;20.28;98900.63;6309334;27;96934;-69
2022/05/04 11:26:37;;;;;;;;;11.00;10.00;;;;;29.28;21.04;98908.09;6276170;27;97105;-69
2022/05/04 11:29:41;;;;;;;;;9.40;8.40;;;;;29.28;20.40;98896.16;6284445;27;99407;-68
2022/05/04 11:32:44;;;;;;;;;10.00;9.00;;;;;29.07;19.89;98890.72;6299559;27;97753;-70
2022/05/04 11:35:52;;;;;;;;;9.20;8.80;;;;;28.88;20.30;98895.97;6309068;27;97748;-70
2022/05/04 11:38:56;;;;;;;;;10.40;9.40;;;;;29.03;19.96;98898.06;6309097;27;96735;-71
2022/05/04 11:42:02;;;;;;;;;10.00;10.00;;;;;29.18;20.24;98889.09;6283286;27;96615;-71
2022/05/04 11:45:06;;;;;;;;;9.20;9.20;;;;;29.40;19.59;98884.31;6292697;27;97229;-72
2022/05/04 11:48:10;;;;;;;;;11.40;10.40;;;;;29.77;19.71;98896.22;6277856;27;96640;-70
2022/05/04 11:51:15;;;;;;;;;10.40;9.40;;;;;30.23;20.25;98892.16;6282410;27;97438;-69
2022/05/04 11:54:19;;;;;;;;;10.60;10.00;;;;;30.67;19.62;98885.53;6301562;27;96574;-69
2022/05/04 11:57:24;;;;;;;;;10.00;9.00;;;;;30.94;18.92;98884.69;6305268;27;97476;-69
2022/05/04 12:00:27;;;;;;;;;10.60;9.60;;;;;31.03;18.49;98879.03;6313690;27;97169;-71
2022/05/04 12:03:33;;;;;;;;;9.00;9.00;;;;;30.39;18.82;98881.91;6294015;27;96942;-71
2022/05/04 12:06:37;;;;;;;;;12.00;10.00;;;;;30.03;19.89;98877.25;6293692;27;96755;-71
2022/05/04 12:09:40;;;;;;;;;11.80;11.00;;;;;30.09;19.41;98873.06;6313317;27;96866;-72
2022/05/04 12:12:45;;;;;;;;;9.75;9.00;;;;;29.98;20.18;98878.28;6313189;27;97428;-69
2022/05/04 12:15:49;;;;;;;;;9.00;8.80;;;;;30.10;19.08;98878.25;6313660;27;96422;-71
2022/05/04 12:18:52;;;;;;;;;9.00;7.60;;;;;30.15;20.18;98881.97;6284787;27;96807;-72
2022/05/04 12:21:56;;;;;;;;;10.00;9.00;;;;;30.00;18.95;98876.00;6262777;27;97354;-70
2022/05/04 12:24:59;;;;;;;;;10.80;10.80;;;;;29.82;19.03;98877.34;6274134;27;97533;-72
2022/05/04 12:28:03;;;;;;;;;10.50;10.50;;;;;29.53;19.14;98870.06;6284027;27;96606;-70
2022/05/04 12:34:31;;;;;;;;;8.00;8.00;;;;;29.54;20.04;98862.56;6280619;27;98031;-71
2022/05/04 12:37:35;;;;;;;;;9.00;8.00;;;;;29.49;20.41;98862.78;6274582;27;97132;-69
2022/05/04 12:40:39;;;;;;;;;7.00;7.00;;;;;29.41;19.94;98861.75;6278918;27;96675;-71
2022/05/04 12:43:44;;;;;;;;;9.00;9.00;;;;;29.34;20.67;98855.94;6269860;27;99683;-72
2022/05/04 12:46:52;;;;;;;;;8.00;7.00;;;;;29.28;21.06;98855.31;6276137;27;97408;-69
2022/05/04 12:49:56;;;;;;;;;9.25;9.00;;;;;29.18;20.56;98850.22;6280598;27;97493;-72
2022/05/04 12:52:59;;;;;;;;;8.00;8.00;;;;;29.10;20.76;98858.66;6274533;27;99495;-73
2022/05/04 12:59:25;;;;;;;;;9.00;9.00;;;;;28.94;20.99;98860.47;6282774;27;97817;-71
2022/05/04 13:02:28;;;;;;;;;7.50;7.00;;;;;28.86;20.02;98853.88;6285288;27;96855;-72
2022/05/04 13:05:31;;;;;;;;;9.00;9.00;;;;;28.82;20.67;98855.72;6284350;27;97137;-73
2022/05/04 13:08:35;;;;;;;;;10.60;9.00;;;;;28.59;19.46;98844.16;6259171;27;98544;-69
2022/05/04 13:11:40;;;;;;;;;8.00;8.00;;;;;28.71;19.98;98852.56;6286617;27;97202;-69
2022/05/04 13:14:44;;;;;;;;;12.00;11.00;;;;;28.56;19.50;98844.03;6285719;27;98018;-69
2022/05/04 13:17:47;;;;;;;;;9.00;8.60;;;;;28.42;19.50;98839.59;6263463;27;99618;-68
2022/05/04 13:20:51;;;;;;;;;8.00;8.00;;;;;28.35;19.43;98836.53;6272993;27;97033;-71
2022/05/04 13:23:55;;;;;;;;;8.40;8.00;;;;;28.23;20.00;98839.28;6276375;27;97955;-71
2022/05/04 13:26:58;;;;;;;;;10.00;9.00;;;;;27.85;19.93;98835.78;6283705;27;98423;-71
2022/05/04 13:30:04;;;;;;;;;10.00;10.00;;;;;27.37;20.46;98820.38;6281113;27;97778;-71
2022/05/04 13:33:07;;;;;;;;;8.25;8.00;;;;;27.39;21.53;98829.19;6276480;27;96841;-71
2022/05/04 13:36:10;;;;;;;;;8.00;8.00;;;;;27.49;21.01;98825.25;6295818;27;96559;-71
2022/05/04 13:39:13;;;;;;;;;9.00;8.00;;;;;27.49;21.89;98837.16;6307762;27;97639;-72
2022/05/04 13:42:17;;;;;;;;;9.00;8.00;;;;;27.55;20.56;98832.22;6280646;27;97620;-71
2022/05/04 13:45:21;;;;;;;;;8.80;8.00;;;;;27.53;21.56;98823.44;6287974;27;96648;-71
2022/05/04 13:48:25;;;;;;;;;10.00;9.60;;;;;27.60;21.95;98818.19;6298069;27;96552;-72
2022/05/04 13:54:49;;;;;;;;;8.00;8.00;;;;;27.75;21.82;98836.19;6307724;27;96681;-71
2022/05/04 13:57:53;;;;;;;;;7.00;7.00;;;;;27.58;20.18;98832.38;6268527;27;98321;-71
2022/05/04 14:00:59;;;;;;;;;7.40;7.40;;;;;27.69;20.98;98834.75;6305353;27;97464;-71
2022/05/04 14:04:03;;;;;;;;;9.00;8.40;;;;;27.83;21.29;98832.53;6286235;27;98095;-70
2022/05/04 14:07:06;;;;;;;;;10.00;9.00;;;;;27.78;20.99;98829.97;6300875;27;97488;-72
2022/05/04 14:10:10;;;;;;;;;8.80;8.00;;;;;27.76;21.19;98833.06;6303128;27;97419;-72
2022/05/04 14:13:14;;;;;;;;;10.00;10.00;;;;;27.87;20.95;98842.59;6288950;27;97554;-72
2022/05/04 14:16:18;;;;;;;;;11.00;9.00;;;;;27.88;21.17;98832.34;6279599;27;99080;-71
2022/05/04 14:19:22;;;;;;;;;9.00;9.00;;;;;27.85;21.31;98833.03;6289889;27;97184;-71
2022/05/04 14:22:25;;;;;;;;;7.40;7.00;;;;;27.74;20.28;98831.78;6295766;27;96809;-72
2022/05/04 14:25:28;;;;;;;;;9.00;9.00;;;;;27.68;21.26;98831.16;6272250;27;97534;-70
2022/05/04 14:28:32;;;;;;;;;9.00;8.00;;;;;27.53;21.10;98827.00;6285935;27;97448;-71
2022/05/04 14:31:37;;;;;;;;;8.00;8.00;;;;;27.35;21.74;98828.22;6277635;27;97985;-71
2022/05/04 14:34:41;;;;;;;;;10.00;9.60;;;;;27.03;21.43;98796.44;6297723;27;96311;-71
2022/05/04 14:37:45;;;;;;;;;10.00;9.00;;;;;26.89;21.34;98831.81;6286633;27;98861;-71
2022/05/04 14:40:48;;;;;;;;;10.00;10.00;;;;;26.81;21.58;98824.34;6301883;27;98139;-71
2022/05/04 14:43:52;;;;;;;;;9.20;8.80;;;;;26.74;21.73;98822.06;6289176;27;98212;-71
2022/05/04 14:46:57;;;;;;;;;7.80;7.80;;;;;26.74;22.26;98818.50;6289003;27;98768;-71
2022/05/04 14:50:00;;;;;;;;;9.00;8.00;;;;;26.63;22.04;98818.03;6268951;27;98798;-72
2022/05/04 14:53:04;;;;;;;;;8.40;8.00;;;;;26.64;22.77;98833.47;6267318;27;97321;-71
2022/05/04 14:56:09;;;;;;;;;9.00;8.50;;;;;26.44;22.17;98831.38;6310834;27;96523;-71
2022/05/04 14:59:13;;;;;;;;;7.00;6.50;;;;;26.38;22.49;98829.13;6258106;27;97755;-70
2022/05/04 15:02:17;;;;;;;;;7.00;7.00;;;;;26.26;22.45;98825.06;6293617;27;96837;-71